< Typhoon 202209 2022 Season Typhoon 202211 >
Typhoon 202210 (TOKAGE)
General InformationTrack Information on Google MapsDetailed Wind InformationForecast History on Google MapsAccess Analytics MapList of All Images || NewsDisaster Info.JMA Disaster Info. XMLWeblogTrackbackTyphoon FrontTwiphoonTyphoon Now!Typhoon ImaginationResourceGoogle EarthGE AnimationAtom FeedGeoJSON
Detalied Best Track (Time Zone = UTC)
Year Month Day Hour Lat. Long. Pressure (hPa) Wind (kt) Class Image Chart
2022 8 21 06 22.0 151.0 1002 0 2 Image Chart
2022 8 21 12 22.3 151.2 1002 0 2 Image Chart
2022 8 21 18 22.9 151.5 1002 0 2 Image Chart
2022 8 22 00 24.0 151.6 1000 35 3 Image Chart
2022 8 22 06 25.1 151.6 998 40 3 Image Chart
2022 8 22 12 26.1 151.5 994 45 3 Image Chart
2022 8 22 18 27.3 151.3 992 50 4 Image Chart
2022 8 23 00 28.7 150.5 990 55 4 Image Chart
2022 8 23 06 30.3 149.8 980 65 5 Image Chart
2022 8 23 12 31.6 149.1 970 75 5 Image Chart
2022 8 23 18 32.9 148.6 970 75 5 Image Chart
2022 8 24 00 34.2 148.6 970 75 5 Image Chart
2022 8 24 06 35.2 149.0 970 75 5 Image Chart
2022 8 24 12 36.2 149.5 975 70 5 Image Chart
2022 8 24 18 37.3 150.3 975 70 5 Image Chart
2022 8 25 00 38.6 151.4 980 65 5 Image Chart
2022 8 25 06 40.4 152.9 990 55 4 Image Chart
2022 8 25 12 42.8 155.0 992 50 4 Image Chart
2022 8 25 18 45.1 158.3 996 0 6 Image Chart
2022 8 26 00 47.0 160.6 1002 0 6 Image Chart
2022 8 26 06 48.7 165.2 1006 0 6 Image Chart
2022 8 26 12 50.1 170.9 1010 0 6 Image Chart
2022 8 26 18 50.6 177.3 1012 0 6 Image Chart
2022 8 27 00 50.7 184.1 1014 0 6 Image Chart
Japan Meteorological Agency Best Track Data | Correction Date : 2022-11-20
< Typhoon 202209 2022 Season Typhoon 202211 >

Help